sensor_id;sensor_type;location;lat;lon;timestamp;P1;durP1;ratioP1;P2;durP2;ratioP2
16326;SDS011;34812;49.846;9.610;2023-04-15T00:00:18;6.97;;;6.20;;
16326;SDS011;34812;49.846;9.610;2023-04-15T00:01:20;7.40;;;6.70;;
16326;SDS011;34812;49.846;9.610;2023-04-15T00:02:23;7.67;;;6.50;;
16326;SDS011;34812;49.846;9.610;2023-04-15T00:03:24;6.60;;;6.03;;
16326;SDS011;34812;49.846;9.610;2023-04-15T00:04:25;7.73;;;6.93;;
16326;SDS011;34812;49.846;9.610;2023-04-15T00:05:28;6.73;;;6.13;;
16326;SDS011;34812;49.846;9.610;2023-04-15T00:06:30;6.87;;;6.17;;
16326;SDS011;34812;49.846;9.610;2023-04-15T00:07:31;9.87;;;6.53;;
16326;SDS011;34812;49.846;9.610;2023-04-15T00:08:32;7.10;;;6.40;;
16326;SDS011;34812;49.846;9.610;2023-04-15T00:09:34;8.97;;;6.80;;
16326;SDS011;34812;49.846;9.610;2023-04-15T00:10:34;7.57;;;6.80;;
16326;SDS011;34812;49.846;9.610;2023-04-15T00:11:36;8.10;;;7.17;;
16326;SDS011;34812;49.846;9.610;2023-04-15T00:12:37;7.00;;;6.40;;
16326;SDS011;34812;49.846;9.610;2023-04-15T00:13:39;7.40;;;6.80;;
16326;SDS011;34812;49.846;9.610;2023-04-15T00:14:40;7.00;;;6.30;;
16326;SDS011;34812;49.846;9.610;2023-04-15T00:15:41;8.70;;;5.90;;
16326;SDS011;34812;49.846;9.610;2023-04-15T00:16:42;7.73;;;6.50;;
16326;SDS011;34812;49.846;9.610;2023-04-15T00:17:45;6.20;;;5.70;;
16326;SDS011;34812;49.846;9.610;2023-04-15T00:18:46;6.47;;;5.87;;
16326;SDS011;34812;49.846;9.610;2023-04-15T00:19:48;7.47;;;5.73;;
16326;SDS011;34812;49.846;9.610;2023-04-15T00:20:49;6.30;;;5.70;;
16326;SDS011;34812;49.846;9.610;2023-04-15T00:21:51;6.43;;;5.93;;
16326;SDS011;34812;49.846;9.610;2023-04-15T00:22:52;9.10;;;5.63;;
16326;SDS011;34812;49.846;9.610;2023-04-15T00:23:53;6.57;;;5.80;;
16326;SDS011;34812;49.846;9.610;2023-04-15T00:24:54;6.33;;;5.83;;
16326;SDS011;34812;49.846;9.610;2023-04-15T00:25:56;6.70;;;6.10;;
16326;SDS011;34812;49.846;9.610;2023-04-15T00:26:57;6.33;;;5.60;;
16326;SDS011;34812;49.846;9.610;2023-04-15T00:27:59;6.40;;;5.80;;
16326;SDS011;34812;49.846;9.610;2023-04-15T00:28:59;7.37;;;6.73;;
16326;SDS011;34812;49.846;9.610;2023-04-15T00:30:01;7.40;;;5.83;;
16326;SDS011;34812;49.846;9.610;2023-04-15T00:31:03;6.80;;;6.10;;
16326;SDS011;34812;49.846;9.610;2023-04-15T00:32:05;6.93;;;5.43;;
16326;SDS011;34812;49.846;9.610;2023-04-15T00:33:07;6.73;;;6.13;;
16326;SDS011;34812;49.846;9.610;2023-04-15T00:34:09;6.57;;;5.97;;
16326;SDS011;34812;49.846;9.610;2023-04-15T00:35:10;6.67;;;6.00;;
16326;SDS011;34812;49.846;9.610;2023-04-15T00:36:12;11.13;;;7.00;;
16326;SDS011;34812;49.846;9.610;2023-04-15T00:37:12;8.77;;;6.47;;
16326;SDS011;34812;49.846;9.610;2023-04-15T00:38:14;7.03;;;6.00;;
16326;SDS011;34812;49.846;9.610;2023-04-15T00:39:15;6.90;;;6.30;;
16326;SDS011;34812;49.846;9.610;2023-04-15T00:40:17;6.17;;;5.67;;
16326;SDS011;34812;49.846;9.610;2023-04-15T00:41:20;6.80;;;6.30;;
16326;SDS011;34812;49.846;9.610;2023-04-15T00:42:22;7.87;;;6.10;;
16326;SDS011;34812;49.846;9.610;2023-04-15T00:43:24;6.97;;;6.13;;
16326;SDS011;34812;49.846;9.610;2023-04-15T00:44:26;6.57;;;5.97;;
16326;SDS011;34812;49.846;9.610;2023-04-15T00:45:28;6.70;;;6.10;;
16326;SDS011;34812;49.846;9.610;2023-04-15T00:46:29;6.27;;;5.70;;
16326;SDS011;34812;49.846;9.610;2023-04-15T00:47:31;6.53;;;5.90;;
16326;SDS011;34812;49.846;9.610;2023-04-15T00:48:35;6.63;;;6.00;;
16326;SDS011;34812;49.846;9.610;2023-04-15T00:49:39;7.60;;;6.50;;
16326;SDS011;34812;49.846;9.610;2023-04-15T00:50:40;6.80;;;5.90;;
16326;SDS011;34812;49.846;9.610;2023-04-15T00:51:41;6.63;;;6.03;;
16326;SDS011;34812;49.846;9.610;2023-04-15T00:52:42;6.97;;;6.33;;
16326;SDS011;34812;49.846;9.610;2023-04-15T00:53:44;6.93;;;6.30;;
16326;SDS011;34812;49.846;9.610;2023-04-15T00:54:45;7.03;;;6.43;;
16326;SDS011;34812;49.846;9.610;2023-04-15T00:55:47;6.00;;;5.50;;
16326;SDS011;34812;49.846;9.610;2023-04-15T00:56:48;6.87;;;6.27;;
16326;SDS011;34812;49.846;9.610;2023-04-15T00:57:50;6.67;;;5.67;;
16326;SDS011;34812;49.846;9.610;2023-04-15T00:58:51;7.30;;;5.90;;
16326;SDS011;34812;49.846;9.610;2023-04-15T00:59:53;6.43;;;5.80;;
16326;SDS011;34812;49.846;9.610;2023-04-15T01:00:55;7.33;;;5.80;;
16326;SDS011;34812;49.846;9.610;2023-04-15T01:01:58;6.80;;;6.13;;
16326;SDS011;34812;49.846;9.610;2023-04-15T01:02:58;7.57;;;5.50;;
16326;SDS011;34812;49.846;9.610;2023-04-15T01:04:02;6.50;;;5.90;;
16326;SDS011;34812;49.846;9.610;2023-04-15T01:05:04;10.00;;;5.60;;
16326;SDS011;34812;49.846;9.610;2023-04-15T01:06:06;6.17;;;5.60;;
16326;SDS011;34812;49.846;9.610;2023-04-15T01:07:07;6.77;;;6.17;;
16326;SDS011;34812;49.846;9.610;2023-04-15T01:08:09;6.37;;;5.70;;
16326;SDS011;34812;49.846;9.610;2023-04-15T01:09:10;6.13;;;5.60;;
16326;SDS011;34812;49.846;9.610;2023-04-15T01:10:12;7.23;;;6.10;;
16326;SDS011;34812;49.846;9.610;2023-04-15T01:11:13;6.83;;;6.20;;
16326;SDS011;34812;49.846;9.610;2023-04-15T01:12:17;6.80;;;6.20;;
16326;SDS011;34812;49.846;9.610;2023-04-15T01:13:19;6.30;;;5.70;;
16326;SDS011;34812;49.846;9.610;2023-04-15T01:14:21;6.03;;;5.50;;
16326;SDS011;34812;49.846;9.610;2023-04-15T01:15:22;8.83;;;6.57;;
16326;SDS011;34812;49.846;9.610;2023-04-15T01:16:25;6.03;;;5.53;;
16326;SDS011;34812;49.846;9.610;2023-04-15T01:17:27;6.57;;;5.97;;
16326;SDS011;34812;49.846;9.610;2023-04-15T01:18:29;5.40;;;4.97;;
16326;SDS011;34812;49.846;9.610;2023-04-15T01:19:32;6.77;;;5.27;;
16326;SDS011;34812;49.846;9.610;2023-04-15T01:20:33;7.17;;;5.23;;
16326;SDS011;34812;49.846;9.610;2023-04-15T01:21:35;7.27;;;5.47;;
16326;SDS011;34812;49.846;9.610;2023-04-15T01:22:38;6.13;;;5.53;;
16326;SDS011;34812;49.846;9.610;2023-04-15T01:23:41;5.93;;;5.43;;
16326;SDS011;34812;49.846;9.610;2023-04-15T01:24:49;6.60;;;6.00;;
16326;SDS011;34812;49.846;9.610;2023-04-15T01:25:57;6.00;;;5.40;;
16326;SDS011;34812;49.846;9.610;2023-04-15T01:26:59;5.80;;;4.97;;
16326;SDS011;34812;49.846;9.610;2023-04-15T01:28:00;6.57;;;5.90;;
16326;SDS011;34812;49.846;9.610;2023-04-15T01:29:03;7.03;;;6.33;;
16326;SDS011;34812;49.846;9.610;2023-04-15T01:30:04;7.20;;;6.07;;
16326;SDS011;34812;49.846;9.610;2023-04-15T01:31:07;6.87;;;6.17;;
16326;SDS011;34812;49.846;9.610;2023-04-15T01:32:10;5.63;;;5.17;;
16326;SDS011;34812;49.846;9.610;2023-04-15T01:33:12;6.60;;;5.57;;
16326;SDS011;34812;49.846;9.610;2023-04-15T01:34:13;5.93;;;5.27;;
16326;SDS011;34812;49.846;9.610;2023-04-15T01:35:15;6.17;;;4.67;;
16326;SDS011;34812;49.846;9.610;2023-04-15T01:36:17;5.23;;;4.73;;
16326;SDS011;34812;49.846;9.610;2023-04-15T01:37:19;4.90;;;4.50;;
16326;SDS011;34812;49.846;9.610;2023-04-15T01:38:20;5.30;;;4.80;;
16326;SDS011;34812;49.846;9.610;2023-04-15T01:39:21;5.10;;;4.57;;
16326;SDS011;34812;49.846;9.610;2023-04-15T01:40:22;5.47;;;4.63;;
16326;SDS011;34812;49.846;9.610;2023-04-15T01:41:26;5.40;;;4.53;;
16326;SDS011;34812;49.846;9.610;2023-04-15T01:42:27;5.07;;;4.57;;
16326;SDS011;34812;49.846;9.610;2023-04-15T01:43:28;4.90;;;4.40;;
16326;SDS011;34812;49.846;9.610;2023-04-15T01:44:29;4.83;;;4.43;;
16326;SDS011;34812;49.846;9.610;2023-04-15T01:45:31;5.27;;;4.73;;
16326;SDS011;34812;49.846;9.610;2023-04-15T01:46:32;6.30;;;4.70;;
16326;SDS011;34812;49.846;9.610;2023-04-15T01:47:34;4.90;;;4.43;;
16326;SDS011;34812;49.846;9.610;2023-04-15T01:48:35;4.90;;;4.40;;
16326;SDS011;34812;49.846;9.610;2023-04-15T01:49:37;4.50;;;4.20;;
16326;SDS011;34812;49.846;9.610;2023-04-15T01:50:38;5.10;;;4.60;;
16326;SDS011;34812;49.846;9.610;2023-04-15T01:51:39;5.23;;;4.73;;
16326;SDS011;34812;49.846;9.610;2023-04-15T01:52:41;5.00;;;4.60;;
16326;SDS011;34812;49.846;9.610;2023-04-15T01:53:42;4.77;;;4.27;;
16326;SDS011;34812;49.846;9.610;2023-04-15T01:54:44;5.40;;;4.90;;
16326;SDS011;34812;49.846;9.610;2023-04-15T01:55:45;7.17;;;4.83;;
16326;SDS011;34812;49.846;9.610;2023-04-15T01:56:49;4.93;;;4.53;;
16326;SDS011;34812;49.846;9.610;2023-04-15T01:57:50;6.73;;;4.60;;
16326;SDS011;34812;49.846;9.610;2023-04-15T01:58:52;4.77;;;4.27;;
16326;SDS011;34812;49.846;9.610;2023-04-15T01:59:52;5.23;;;4.40;;
16326;SDS011;34812;49.846;9.610;2023-04-15T02:00:55;4.73;;;4.23;;
16326;SDS011;34812;49.846;9.610;2023-04-15T02:01:56;6.17;;;4.83;;
16326;SDS011;34812;49.846;9.610;2023-04-15T02:03:00;4.60;;;4.20;;
16326;SDS011;34812;49.846;9.610;2023-04-15T02:04:01;4.83;;;4.10;;
16326;SDS011;34812;49.846;9.610;2023-04-15T02:05:05;4.70;;;4.30;;
16326;SDS011;34812;49.846;9.610;2023-04-15T02:06:06;5.07;;;4.60;;
16326;SDS011;34812;49.846;9.610;2023-04-15T02:07:07;5.70;;;4.63;;
16326;SDS011;34812;49.846;9.610;2023-04-15T02:08:09;6.27;;;4.00;;
16326;SDS011;34812;49.846;9.610;2023-04-15T02:09:11;6.10;;;4.90;;
16326;SDS011;34812;49.846;9.610;2023-04-15T02:10:12;5.60;;;4.80;;
16326;SDS011;34812;49.846;9.610;2023-04-15T02:11:15;5.00;;;4.47;;
16326;SDS011;34812;49.846;9.610;2023-04-15T02:12:17;4.70;;;4.30;;
16326;SDS011;34812;49.846;9.610;2023-04-15T02:13:20;4.77;;;4.37;;
16326;SDS011;34812;49.846;9.610;2023-04-15T02:14:22;5.90;;;4.40;;
16326;SDS011;34812;49.846;9.610;2023-04-15T02:15:24;5.63;;;4.33;;
16326;SDS011;34812;49.846;9.610;2023-04-15T02:16:25;5.17;;;4.67;;
16326;SDS011;34812;49.846;9.610;2023-04-15T02:17:26;5.43;;;4.57;;
16326;SDS011;34812;49.846;9.610;2023-04-15T02:18:27;4.20;;;3.87;;
16326;SDS011;34812;49.846;9.610;2023-04-15T02:19:29;4.67;;;4.23;;
16326;SDS011;34812;49.846;9.610;2023-04-15T02:20:30;4.80;;;4.40;;
16326;SDS011;34812;49.846;9.610;2023-04-15T02:21:32;4.80;;;4.27;;
16326;SDS011;34812;49.846;9.610;2023-04-15T02:22:34;5.23;;;4.40;;
16326;SDS011;34812;49.846;9.610;2023-04-15T02:23:36;7.50;;;4.50;;
16326;SDS011;34812;49.846;9.610;2023-04-15T02:24:37;5.10;;;4.60;;
16326;SDS011;34812;49.846;9.610;2023-04-15T02:25:38;6.97;;;4.27;;
16326;SDS011;34812;49.846;9.610;2023-04-15T02:26:40;4.83;;;4.43;;
16326;SDS011;34812;49.846;9.610;2023-04-15T02:27:42;4.50;;;4.20;;
16326;SDS011;34812;49.846;9.610;2023-04-15T02:28:45;4.33;;;4.07;;
16326;SDS011;34812;49.846;9.610;2023-04-15T02:29:48;4.50;;;4.10;;
16326;SDS011;34812;49.846;9.610;2023-04-15T02:30:50;4.60;;;4.03;;
16326;SDS011;34812;49.846;9.610;2023-04-15T02:31:52;4.43;;;3.77;;
16326;SDS011;34812;49.846;9.610;2023-04-15T02:32:53;5.57;;;4.57;;
16326;SDS011;34812;49.846;9.610;2023-04-15T02:33:58;4.80;;;4.40;;
16326;SDS011;34812;49.846;9.610;2023-04-15T02:35:02;5.13;;;3.73;;
16326;SDS011;34812;49.846;9.610;2023-04-15T02:36:03;4.63;;;4.03;;
16326;SDS011;34812;49.846;9.610;2023-04-15T02:37:05;4.37;;;4.07;;
16326;SDS011;34812;49.846;9.610;2023-04-15T02:38:08;4.60;;;4.20;;
16326;SDS011;34812;49.846;9.610;2023-04-15T02:39:10;5.60;;;4.10;;
16326;SDS011;34812;49.846;9.610;2023-04-15T02:40:13;4.53;;;4.23;;
16326;SDS011;34812;49.846;9.610;2023-04-15T02:41:14;5.10;;;4.60;;
16326;SDS011;34812;49.846;9.610;2023-04-15T02:42:17;5.13;;;4.17;;
16326;SDS011;34812;49.846;9.610;2023-04-15T02:43:22;4.97;;;4.30;;
16326;SDS011;34812;49.846;9.610;2023-04-15T02:44:24;5.37;;;4.87;;
16326;SDS011;34812;49.846;9.610;2023-04-15T02:45:31;5.10;;;3.97;;
16326;SDS011;34812;49.846;9.610;2023-04-15T02:46:34;5.13;;;4.40;;
16326;SDS011;34812;49.846;9.610;2023-04-15T02:47:36;4.60;;;4.20;;
16326;SDS011;34812;49.846;9.610;2023-04-15T02:48:38;4.30;;;3.93;;
16326;SDS011;34812;49.846;9.610;2023-04-15T02:49:42;5.60;;;4.57;;
16326;SDS011;34812;49.846;9.610;2023-04-15T02:50:43;4.90;;;3.93;;
16326;SDS011;34812;49.846;9.610;2023-04-15T02:51:47;4.60;;;4.30;;
16326;SDS011;34812;49.846;9.610;2023-04-15T02:52:48;4.53;;;4.13;;
16326;SDS011;34812;49.846;9.610;2023-04-15T02:53:50;5.07;;;4.33;;
16326;SDS011;34812;49.846;9.610;2023-04-15T02:54:51;4.43;;;3.97;;
16326;SDS011;34812;49.846;9.610;2023-04-15T02:55:56;4.73;;;4.33;;
16326;SDS011;34812;49.846;9.610;2023-04-15T02:56:58;4.87;;;4.57;;
16326;SDS011;34812;49.846;9.610;2023-04-15T02:58:00;5.40;;;4.30;;
16326;SDS011;34812;49.846;9.610;2023-04-15T02:59:03;4.50;;;4.10;;
16326;SDS011;34812;49.846;9.610;2023-04-15T03:00:05;4.43;;;3.93;;
16326;SDS011;34812;49.846;9.610;2023-04-15T03:01:09;5.97;;;4.30;;
16326;SDS011;34812;49.846;9.610;2023-04-15T03:02:11;5.23;;;4.17;;
16326;SDS011;34812;49.846;9.610;2023-04-15T03:03:12;4.10;;;3.70;;
16326;SDS011;34812;49.846;9.610;2023-04-15T03:04:14;4.37;;;3.97;;
16326;SDS011;34812;49.846;9.610;2023-04-15T03:05:15;4.23;;;3.93;;
16326;SDS011;34812;49.846;9.610;2023-04-15T03:06:22;4.63;;;4.23;;
16326;SDS011;34812;49.846;9.610;2023-04-15T03:07:24;4.33;;;3.93;;
16326;SDS011;34812;49.846;9.610;2023-04-15T03:08:26;4.40;;;4.10;;
16326;SDS011;34812;49.846;9.610;2023-04-15T03:09:29;4.20;;;3.90;;
16326;SDS011;34812;49.846;9.610;2023-04-15T03:10:32;4.60;;;4.20;;
16326;SDS011;34812;49.846;9.610;2023-04-15T03:11:34;5.97;;;3.90;;
16326;SDS011;34812;49.846;9.610;2023-04-15T03:12:40;4.30;;;3.97;;
16326;SDS011;34812;49.846;9.610;2023-04-15T03:13:43;4.67;;;4.33;;
16326;SDS011;34812;49.846;9.610;2023-04-15T03:14:58;4.67;;;4.20;;
16326;SDS011;34812;49.846;9.610;2023-04-15T03:16:07;4.57;;;4.27;;
16326;SDS011;34812;49.846;9.610;2023-04-15T03:17:08;4.70;;;4.30;;
16326;SDS011;34812;49.846;9.610;2023-04-15T03:18:09;4.63;;;4.20;;
16326;SDS011;34812;49.846;9.610;2023-04-15T03:19:10;4.60;;;4.20;;
16326;SDS011;34812;49.846;9.610;2023-04-15T03:20:14;6.47;;;4.80;;
16326;SDS011;34812;49.846;9.610;2023-04-15T03:21:15;6.93;;;4.67;;
16326;SDS011;34812;49.846;9.610;2023-04-15T03:22:18;4.87;;;4.50;;
16326;SDS011;34812;49.846;9.610;2023-04-15T03:23:20;5.47;;;4.17;;
16326;SDS011;34812;49.846;9.610;2023-04-15T03:24:22;6.23;;;4.70;;
16326;SDS011;34812;49.846;9.610;2023-04-15T03:25:24;4.70;;;4.30;;
16326;SDS011;34812;49.846;9.610;2023-04-15T03:26:26;4.70;;;4.20;;
16326;SDS011;34812;49.846;9.610;2023-04-15T03:27:28;6.07;;;4.53;;
16326;SDS011;34812;49.846;9.610;2023-04-15T03:28:33;4.77;;;4.37;;
16326;SDS011;34812;49.846;9.610;2023-04-15T03:29:35;4.80;;;4.47;;
16326;SDS011;34812;49.846;9.610;2023-04-15T03:30:38;4.77;;;4.37;;
16326;SDS011;34812;49.846;9.610;2023-04-15T03:31:39;6.23;;;4.90;;
16326;SDS011;34812;49.846;9.610;2023-04-15T03:32:41;6.07;;;4.80;;
16326;SDS011;34812;49.846;9.610;2023-04-15T03:33:42;7.20;;;4.73;;
16326;SDS011;34812;49.846;9.610;2023-04-15T03:34:44;5.00;;;4.53;;
16326;SDS011;34812;49.846;9.610;2023-04-15T03:35:44;5.17;;;4.63;;
16326;SDS011;34812;49.846;9.610;2023-04-15T03:36:46;8.40;;;4.77;;
16326;SDS011;34812;49.846;9.610;2023-04-15T03:37:48;7.57;;;5.03;;
16326;SDS011;34812;49.846;9.610;2023-04-15T03:38:49;5.00;;;4.60;;
16326;SDS011;34812;49.846;9.610;2023-04-15T03:39:50;4.77;;;4.37;;
16326;SDS011;34812;49.846;9.610;2023-04-15T03:40:51;4.67;;;4.37;;
16326;SDS011;34812;49.846;9.610;2023-04-15T03:41:53;5.30;;;4.90;;
16326;SDS011;34812;49.846;9.610;2023-04-15T03:42:53;6.67;;;4.97;;
16326;SDS011;34812;49.846;9.610;2023-04-15T03:43:55;6.93;;;4.77;;
16326;SDS011;34812;49.846;9.610;2023-04-15T03:44:56;5.00;;;4.60;;
16326;SDS011;34812;49.846;9.610;2023-04-15T03:45:59;5.87;;;4.80;;
16326;SDS011;34812;49.846;9.610;2023-04-15T03:47:00;5.03;;;4.50;;
16326;SDS011;34812;49.846;9.610;2023-04-15T03:48:02;5.53;;;4.97;;
16326;SDS011;34812;49.846;9.610;2023-04-15T03:49:05;4.87;;;4.40;;
16326;SDS011;34812;49.846;9.610;2023-04-15T03:50:07;4.90;;;4.50;;
16326;SDS011;34812;49.846;9.610;2023-04-15T03:51:08;5.30;;;4.80;;
16326;SDS011;34812;49.846;9.610;2023-04-15T03:52:09;4.67;;;4.37;;
16326;SDS011;34812;49.846;9.610;2023-04-15T03:53:10;5.30;;;4.90;;
16326;SDS011;34812;49.846;9.610;2023-04-15T03:54:12;5.53;;;5.03;;
16326;SDS011;34812;49.846;9.610;2023-04-15T03:55:14;6.93;;;4.90;;
16326;SDS011;34812;49.846;9.610;2023-04-15T03:56:16;7.77;;;5.30;;
16326;SDS011;34812;49.846;9.610;2023-04-15T03:57:16;5.60;;;5.10;;
16326;SDS011;34812;49.846;9.610;2023-04-15T03:58:18;4.73;;;4.33;;
16326;SDS011;34812;49.846;9.610;2023-04-15T03:59:19;8.37;;;5.07;;
16326;SDS011;34812;49.846;9.610;2023-04-15T04:00:21;4.90;;;4.50;;
16326;SDS011;34812;49.846;9.610;2023-04-15T04:01:23;4.70;;;4.40;;
16326;SDS011;34812;49.846;9.610;2023-04-15T04:02:25;5.37;;;4.87;;
16326;SDS011;34812;49.846;9.610;2023-04-15T04:03:27;5.37;;;4.87;;
16326;SDS011;34812;49.846;9.610;2023-04-15T04:04:28;5.30;;;4.67;;
16326;SDS011;34812;49.846;9.610;2023-04-15T04:05:29;5.90;;;4.90;;
16326;SDS011;34812;49.846;9.610;2023-04-15T04:06:31;5.00;;;4.60;;
16326;SDS011;34812;49.846;9.610;2023-04-15T04:07:32;5.00;;;4.57;;
16326;SDS011;34812;49.846;9.610;2023-04-15T04:08:34;4.83;;;4.50;;
16326;SDS011;34812;49.846;9.610;2023-04-15T04:09:34;5.20;;;4.80;;
16326;SDS011;34812;49.846;9.610;2023-04-15T04:10:38;5.57;;;4.80;;
16326;SDS011;34812;49.846;9.610;2023-04-15T04:11:39;5.00;;;4.63;;
16326;SDS011;34812;49.846;9.610;2023-04-15T04:12:40;6.50;;;5.17;;
16326;SDS011;34812;49.846;9.610;2023-04-15T04:13:41;5.70;;;4.67;;
16326;SDS011;34812;49.846;9.610;2023-04-15T04:14:43;5.17;;;4.40;;
16326;SDS011;34812;49.846;9.610;2023-04-15T04:15:44;5.00;;;4.67;;
16326;SDS011;34812;49.846;9.610;2023-04-15T04:16:47;6.97;;;4.80;;
16326;SDS011;34812;49.846;9.610;2023-04-15T04:17:47;5.13;;;4.63;;
16326;SDS011;34812;49.846;9.610;2023-04-15T04:18:49;5.10;;;4.70;;
16326;SDS011;34812;49.846;9.610;2023-04-15T04:19:50;6.07;;;4.50;;
16326;SDS011;34812;49.846;9.610;2023-04-15T04:20:52;5.97;;;4.93;;
16326;SDS011;34812;49.846;9.610;2023-04-15T04:21:53;5.33;;;4.83;;
16326;SDS011;34812;49.846;9.610;2023-04-15T04:22:54;5.43;;;4.93;;
16326;SDS011;34812;49.846;9.610;2023-04-15T04:23:55;5.83;;;4.90;;
16326;SDS011;34812;49.846;9.610;2023-04-15T04:24:58;5.10;;;4.70;;
16326;SDS011;34812;49.846;9.610;2023-04-15T04:26:00;5.20;;;4.70;;
16326;SDS011;34812;49.846;9.610;2023-04-15T04:27:02;5.20;;;4.80;;
16326;SDS011;34812;49.846;9.610;2023-04-15T04:28:03;5.83;;;5.00;;
16326;SDS011;34812;49.846;9.610;2023-04-15T04:29:05;5.70;;;4.30;;
16326;SDS011;34812;49.846;9.610;2023-04-15T04:30:06;4.80;;;4.30;;
16326;SDS011;34812;49.846;9.610;2023-04-15T04:31:08;5.03;;;4.53;;
16326;SDS011;34812;49.846;9.610;2023-04-15T04:32:10;5.20;;;4.47;;
16326;SDS011;34812;49.846;9.610;2023-04-15T04:33:12;4.60;;;4.20;;
16326;SDS011;34812;49.846;9.610;2023-04-15T04:34:13;5.17;;;4.67;;
16326;SDS011;34812;49.846;9.610;2023-04-15T04:35:15;5.53;;;5.03;;
16326;SDS011;34812;49.846;9.610;2023-04-15T04:36:15;7.80;;;4.80;;
16326;SDS011;34812;49.846;9.610;2023-04-15T04:37:17;5.23;;;4.73;;
16326;SDS011;34812;49.846;9.610;2023-04-15T04:38:18;4.90;;;4.50;;
16326;SDS011;34812;49.846;9.610;2023-04-15T04:39:20;4.67;;;4.37;;
16326;SDS011;34812;49.846;9.610;2023-04-15T04:40:20;5.27;;;4.80;;
16326;SDS011;34812;49.846;9.610;2023-04-15T04:41:22;4.87;;;4.40;;
16326;SDS011;34812;49.846;9.610;2023-04-15T04:42:23;6.30;;;5.00;;
16326;SDS011;34812;49.846;9.610;2023-04-15T04:43:25;4.70;;;4.30;;
16326;SDS011;34812;49.846;9.610;2023-04-15T04:44:26;4.87;;;4.57;;
16326;SDS011;34812;49.846;9.610;2023-04-15T04:45:28;5.83;;;5.30;;
16326;SDS011;34812;49.846;9.610;2023-04-15T04:46:28;6.27;;;5.10;;
16326;SDS011;34812;49.846;9.610;2023-04-15T04:47:32;5.17;;;4.50;;
16326;SDS011;34812;49.846;9.610;2023-04-15T04:48:32;6.67;;;5.30;;
16326;SDS011;34812;49.846;9.610;2023-04-15T04:49:34;5.67;;;5.03;;
16326;SDS011;34812;49.846;9.610;2023-04-15T04:50:35;5.50;;;4.87;;
16326;SDS011;34812;49.846;9.610;2023-04-15T04:51:37;5.50;;;4.90;;
16326;SDS011;34812;49.846;9.610;2023-04-15T04:52:38;5.47;;;5.00;;
16326;SDS011;34812;49.846;9.610;2023-04-15T04:53:40;5.47;;;4.97;;
16326;SDS011;34812;49.846;9.610;2023-04-15T04:54:42;8.57;;;5.10;;
16326;SDS011;34812;49.846;9.610;2023-04-15T04:55:43;5.27;;;4.77;;
16326;SDS011;34812;49.846;9.610;2023-04-15T04:56:44;6.20;;;5.60;;
16326;SDS011;34812;49.846;9.610;2023-04-15T04:57:46;5.90;;;5.30;;
16326;SDS011;34812;49.846;9.610;2023-04-15T04:58:47;6.43;;;5.10;;
16326;SDS011;34812;49.846;9.610;2023-04-15T04:59:48;5.60;;;5.10;;
16326;SDS011;34812;49.846;9.610;2023-04-15T05:00:49;5.10;;;4.70;;
16326;SDS011;34812;49.846;9.610;2023-04-15T05:01:51;7.40;;;5.00;;
16326;SDS011;34812;49.846;9.610;2023-04-15T05:02:53;4.70;;;4.40;;
16326;SDS011;34812;49.846;9.610;2023-04-15T05:03:55;5.20;;;4.70;;
16326;SDS011;34812;49.846;9.610;2023-04-15T05:04:56;5.53;;;5.13;;
16326;SDS011;34812;49.846;9.610;2023-04-15T05:05:58;4.70;;;4.30;;
16326;SDS011;34812;49.846;9.610;2023-04-15T05:06:58;4.30;;;4.00;;
16326;SDS011;34812;49.846;9.610;2023-04-15T05:08:00;4.37;;;3.97;;
16326;SDS011;34812;49.846;9.610;2023-04-15T05:09:01;5.43;;;4.80;;
16326;SDS011;34812;49.846;9.610;2023-04-15T05:10:03;8.20;;;4.30;;
16326;SDS011;34812;49.846;9.610;2023-04-15T05:11:05;4.40;;;4.03;;
16326;SDS011;34812;49.846;9.610;2023-04-15T05:12:06;4.43;;;4.13;;
16326;SDS011;34812;49.846;9.610;2023-04-15T05:13:08;4.77;;;4.33;;
16326;SDS011;34812;49.846;9.610;2023-04-15T05:14:10;4.93;;;4.53;;
16326;SDS011;34812;49.846;9.610;2023-04-15T05:15:10;5.20;;;4.70;;
16326;SDS011;34812;49.846;9.610;2023-04-15T05:16:12;5.37;;;4.87;;
16326;SDS011;34812;49.846;9.610;2023-04-15T05:17:13;5.93;;;4.20;;
16326;SDS011;34812;49.846;9.610;2023-04-15T05:18:16;4.57;;;4.27;;
16326;SDS011;34812;49.846;9.610;2023-04-15T05:19:17;4.37;;;4.07;;
16326;SDS011;34812;49.846;9.610;2023-04-15T05:20:18;4.87;;;4.47;;
16326;SDS011;34812;49.846;9.610;2023-04-15T05:21:19;4.60;;;4.20;;
16326;SDS011;34812;49.846;9.610;2023-04-15T05:22:21;4.37;;;3.97;;
16326;SDS011;34812;49.846;9.610;2023-04-15T05:23:22;4.63;;;4.20;;
16326;SDS011;34812;49.846;9.610;2023-04-15T05:24:24;4.87;;;4.40;;
16326;SDS011;34812;49.846;9.610;2023-04-15T05:25:24;4.33;;;4.00;;
16326;SDS011;34812;49.846;9.610;2023-04-15T05:26:27;4.40;;;4.00;;
16326;SDS011;34812;49.846;9.610;2023-04-15T05:27:28;5.20;;;3.80;;
16326;SDS011;34812;49.846;9.610;2023-04-15T05:28:29;5.10;;;4.67;;
16326;SDS011;34812;49.846;9.610;2023-04-15T05:29:30;4.83;;;4.33;;
16326;SDS011;34812;49.846;9.610;2023-04-15T05:30:32;4.43;;;4.03;;
16326;SDS011;34812;49.846;9.610;2023-04-15T05:31:33;4.33;;;4.03;;
16326;SDS011;34812;49.846;9.610;2023-04-15T05:32:34;4.97;;;3.73;;
16326;SDS011;34812;49.846;9.610;2023-04-15T05:33:37;4.80;;;4.17;;
16326;SDS011;34812;49.846;9.610;2023-04-15T05:34:39;4.60;;;4.17;;
16326;SDS011;34812;49.846;9.610;2023-04-15T05:35:40;4.10;;;3.80;;
16326;SDS011;34812;49.846;9.610;2023-04-15T05:36:42;3.97;;;3.60;;
16326;SDS011;34812;49.846;9.610;2023-04-15T05:37:43;4.00;;;3.70;;
16326;SDS011;34812;49.846;9.610;2023-04-15T05:38:45;3.93;;;3.63;;
16326;SDS011;34812;49.846;9.610;2023-04-15T05:39:46;5.10;;;3.83;;
16326;SDS011;34812;49.846;9.610;2023-04-15T05:40:48;5.37;;;3.83;;
16326;SDS011;34812;49.846;9.610;2023-04-15T05:41:49;5.43;;;4.90;;
16326;SDS011;34812;49.846;9.610;2023-04-15T05:42:50;4.63;;;4.20;;
16326;SDS011;34812;49.846;9.610;2023-04-15T05:43:52;4.20;;;3.80;;
16326;SDS011;34812;49.846;9.610;2023-04-15T05:44:53;4.37;;;3.80;;
16326;SDS011;34812;49.846;9.610;2023-04-15T05:45:54;3.93;;;3.63;;
16326;SDS011;34812;49.846;9.610;2023-04-15T05:46:56;4.03;;;3.73;;
16326;SDS011;34812;49.846;9.610;2023-04-15T05:47:58;3.97;;;3.67;;
16326;SDS011;34812;49.846;9.610;2023-04-15T05:49:00;4.93;;;3.93;;
16326;SDS011;34812;49.846;9.610;2023-04-15T05:50:02;4.27;;;3.73;;
16326;SDS011;34812;49.846;9.610;2023-04-15T05:51:03;4.27;;;3.73;;
16326;SDS011;34812;49.846;9.610;2023-04-15T05:52:05;3.73;;;3.53;;
16326;SDS011;34812;49.846;9.610;2023-04-15T05:53:06;4.30;;;3.90;;
16326;SDS011;34812;49.846;9.610;2023-04-15T05:54:08;3.80;;;3.50;;
16326;SDS011;34812;49.846;9.610;2023-04-15T05:55:09;4.13;;;3.73;;
16326;SDS011;34812;49.846;9.610;2023-04-15T05:56:10;4.50;;;4.07;;
16326;SDS011;34812;49.846;9.610;2023-04-15T05:57:11;4.37;;;3.93;;
16326;SDS011;34812;49.846;9.610;2023-04-15T05:58:13;4.10;;;3.80;;
16326;SDS011;34812;49.846;9.610;2023-04-15T05:59:14;4.10;;;3.80;;
16326;SDS011;34812;49.846;9.610;2023-04-15T06:00:15;4.17;;;3.80;;
16326;SDS011;34812;49.846;9.610;2023-04-15T06:01:16;4.43;;;4.00;;
16326;SDS011;34812;49.846;9.610;2023-04-15T06:02:18;5.50;;;4.10;;
16326;SDS011;34812;49.846;9.610;2023-04-15T06:03:19;3.97;;;3.67;;
16326;SDS011;34812;49.846;9.610;2023-04-15T06:04:23;5.23;;;4.30;;
16326;SDS011;34812;49.846;9.610;2023-04-15T06:05:24;4.43;;;4.03;;
16326;SDS011;34812;49.846;9.610;2023-04-15T06:06:26;4.23;;;3.93;;
16326;SDS011;34812;49.846;9.610;2023-04-15T06:07:27;4.53;;;4.20;;
16326;SDS011;34812;49.846;9.610;2023-04-15T06:08:29;6.37;;;4.23;;
16326;SDS011;34812;49.846;9.610;2023-04-15T06:09:30;5.77;;;3.83;;
16326;SDS011;34812;49.846;9.610;2023-04-15T06:10:31;4.07;;;3.77;;
16326;SDS011;34812;49.846;9.610;2023-04-15T06:11:35;5.57;;;3.83;;
16326;SDS011;34812;49.846;9.610;2023-04-15T06:12:37;3.70;;;3.40;;